sensor_id;sensor_type;location;lat;lon;timestamp;P1;durP1;ratioP1;P2;durP2;ratioP2
47844;SDS011;33605;48.822;8.796;2023-12-07T00:00:52;9.53;;;6.53;;
47844;SDS011;33605;48.822;8.796;2023-12-07T00:03:18;10.30;;;7.40;;
47844;SDS011;33605;48.822;8.796;2023-12-07T00:05:43;10.37;;;6.13;;
47844;SDS011;33605;48.822;8.796;2023-12-07T00:08:09;11.03;;;6.80;;
47844;SDS011;33605;48.822;8.796;2023-12-07T00:10:36;8.07;;;5.70;;
47844;SDS011;33605;48.822;8.796;2023-12-07T00:13:02;8.27;;;6.30;;
47844;SDS011;33605;48.822;8.796;2023-12-07T00:15:27;11.90;;;6.60;;
47844;SDS011;33605;48.822;8.796;2023-12-07T00:17:54;9.70;;;6.63;;
47844;SDS011;33605;48.822;8.796;2023-12-07T00:20:19;7.90;;;6.00;;
47844;SDS011;33605;48.822;8.796;2023-12-07T00:22:45;8.53;;;6.10;;
47844;SDS011;33605;48.822;8.796;2023-12-07T00:25:11;13.57;;;7.90;;
47844;SDS011;33605;48.822;8.796;2023-12-07T00:27:37;10.80;;;7.07;;
47844;SDS011;33605;48.822;8.796;2023-12-07T00:30:03;11.03;;;8.30;;
47844;SDS011;33605;48.822;8.796;2023-12-07T00:32:29;12.00;;;7.57;;
47844;SDS011;33605;48.822;8.796;2023-12-07T00:34:54;11.27;;;7.53;;
47844;SDS011;33605;48.822;8.796;2023-12-07T00:37:20;9.03;;;7.60;;
47844;SDS011;33605;48.822;8.796;2023-12-07T00:39:46;10.13;;;7.47;;
47844;SDS011;33605;48.822;8.796;2023-12-07T00:42:11;11.03;;;7.40;;
47844;SDS011;33605;48.822;8.796;2023-12-07T00:44:40;10.40;;;5.47;;
47844;SDS011;33605;48.822;8.796;2023-12-07T00:47:06;8.53;;;5.90;;
47844;SDS011;33605;48.822;8.796;2023-12-07T00:49:32;8.77;;;6.30;;
47844;SDS011;33605;48.822;8.796;2023-12-07T00:51:58;8.53;;;6.80;;
47844;SDS011;33605;48.822;8.796;2023-12-07T00:54:24;9.00;;;6.23;;
47844;SDS011;33605;48.822;8.796;2023-12-07T00:56:49;9.43;;;6.43;;
47844;SDS011;33605;48.822;8.796;2023-12-07T00:59:16;9.60;;;6.30;;
47844;SDS011;33605;48.822;8.796;2023-12-07T01:01:41;7.27;;;5.63;;
47844;SDS011;33605;48.822;8.796;2023-12-07T01:04:07;6.77;;;5.30;;
47844;SDS011;33605;48.822;8.796;2023-12-07T01:06:33;12.67;;;6.70;;
47844;SDS011;33605;48.822;8.796;2023-12-07T01:08:59;12.63;;;5.80;;
47844;SDS011;33605;48.822;8.796;2023-12-07T01:11:25;5.83;;;5.23;;
47844;SDS011;33605;48.822;8.796;2023-12-07T01:13:50;8.60;;;5.77;;
47844;SDS011;33605;48.822;8.796;2023-12-07T01:16:16;8.50;;;6.87;;
47844;SDS011;33605;48.822;8.796;2023-12-07T01:18:41;9.17;;;6.43;;
47844;SDS011;33605;48.822;8.796;2023-12-07T01:21:07;10.00;;;6.20;;
47844;SDS011;33605;48.822;8.796;2023-12-07T01:23:33;8.60;;;6.20;;
47844;SDS011;33605;48.822;8.796;2023-12-07T01:25:58;9.47;;;6.40;;
47844;SDS011;33605;48.822;8.796;2023-12-07T01:28:27;8.00;;;5.43;;
47844;SDS011;33605;48.822;8.796;2023-12-07T01:30:53;9.80;;;6.23;;
47844;SDS011;33605;48.822;8.796;2023-12-07T01:33:18;7.50;;;5.00;;
47844;SDS011;33605;48.822;8.796;2023-12-07T01:35:44;7.90;;;5.43;;
47844;SDS011;33605;48.822;8.796;2023-12-07T01:38:10;9.07;;;6.30;;
47844;SDS011;33605;48.822;8.796;2023-12-07T01:40:37;6.73;;;5.80;;
47844;SDS011;33605;48.822;8.796;2023-12-07T01:43:03;9.13;;;5.60;;
47844;SDS011;33605;48.822;8.796;2023-12-07T01:45:29;8.90;;;5.60;;
47844;SDS011;33605;48.822;8.796;2023-12-07T01:47:55;7.97;;;5.00;;
47844;SDS011;33605;48.822;8.796;2023-12-07T01:50:23;6.00;;;4.93;;
47844;SDS011;33605;48.822;8.796;2023-12-07T01:52:52;12.17;;;6.07;;
47844;SDS011;33605;48.822;8.796;2023-12-07T01:55:22;7.40;;;5.50;;
47844;SDS011;33605;48.822;8.796;2023-12-07T01:57:48;9.30;;;5.63;;
47844;SDS011;33605;48.822;8.796;2023-12-07T02:00:14;8.33;;;5.60;;
47844;SDS011;33605;48.822;8.796;2023-12-07T02:02:41;8.83;;;4.90;;
47844;SDS011;33605;48.822;8.796;2023-12-07T02:05:08;8.83;;;6.40;;
47844;SDS011;33605;48.822;8.796;2023-12-07T02:07:34;9.37;;;5.67;;
47844;SDS011;33605;48.822;8.796;2023-12-07T02:10:00;6.43;;;4.87;;
47844;SDS011;33605;48.822;8.796;2023-12-07T02:12:26;7.03;;;5.77;;
47844;SDS011;33605;48.822;8.796;2023-12-07T02:14:54;6.23;;;5.63;;
47844;SDS011;33605;48.822;8.796;2023-12-07T02:17:24;7.20;;;5.60;;
47844;SDS011;33605;48.822;8.796;2023-12-07T02:20:01;6.60;;;5.33;;
47844;SDS011;33605;48.822;8.796;2023-12-07T02:25:12;5.93;;;4.80;;
47844;SDS011;33605;48.822;8.796;2023-12-07T02:27:43;8.53;;;5.70;;
47844;SDS011;33605;48.822;8.796;2023-12-07T02:30:11;7.50;;;5.90;;
47844;SDS011;33605;48.822;8.796;2023-12-07T02:32:38;7.20;;;5.80;;
47844;SDS011;33605;48.822;8.796;2023-12-07T02:35:08;6.60;;;4.60;;
47844;SDS011;33605;48.822;8.796;2023-12-07T02:37:52;7.87;;;5.07;;
47844;SDS011;33605;48.822;8.796;2023-12-07T02:40:21;6.57;;;4.90;;
47844;SDS011;33605;48.822;8.796;2023-12-07T02:42:48;7.10;;;5.10;;
47844;SDS011;33605;48.822;8.796;2023-12-07T02:45:15;6.60;;;4.93;;
47844;SDS011;33605;48.822;8.796;2023-12-07T02:47:41;8.90;;;5.10;;
47844;SDS011;33605;48.822;8.796;2023-12-07T02:50:10;8.70;;;4.93;;
47844;SDS011;33605;48.822;8.796;2023-12-07T02:52:37;7.10;;;5.23;;
47844;SDS011;33605;48.822;8.796;2023-12-07T02:55:03;7.17;;;5.70;;
47844;SDS011;33605;48.822;8.796;2023-12-07T02:57:29;7.43;;;5.53;;
47844;SDS011;33605;48.822;8.796;2023-12-07T02:59:56;7.10;;;5.37;;
47844;SDS011;33605;48.822;8.796;2023-12-07T03:02:21;9.90;;;5.70;;
47844;SDS011;33605;48.822;8.796;2023-12-07T03:04:47;7.20;;;5.37;;
47844;SDS011;33605;48.822;8.796;2023-12-07T03:07:13;6.33;;;5.10;;
47844;SDS011;33605;48.822;8.796;2023-12-07T03:09:39;7.30;;;5.53;;
47844;SDS011;33605;48.822;8.796;2023-12-07T03:12:05;9.40;;;5.50;;
47844;SDS011;33605;48.822;8.796;2023-12-07T03:14:32;10.10;;;5.30;;
47844;SDS011;33605;48.822;8.796;2023-12-07T03:16:57;7.27;;;5.57;;
47844;SDS011;33605;48.822;8.796;2023-12-07T03:19:23;7.20;;;4.73;;
47844;SDS011;33605;48.822;8.796;2023-12-07T03:21:49;5.73;;;5.07;;
47844;SDS011;33605;48.822;8.796;2023-12-07T03:24:15;6.57;;;5.00;;
47844;SDS011;33605;48.822;8.796;2023-12-07T03:26:40;9.10;;;5.93;;
47844;SDS011;33605;48.822;8.796;2023-12-07T03:29:06;9.30;;;5.63;;
47844;SDS011;33605;48.822;8.796;2023-12-07T03:31:32;11.00;;;5.63;;
47844;SDS011;33605;48.822;8.796;2023-12-07T03:33:58;7.30;;;5.30;;
47844;SDS011;33605;48.822;8.796;2023-12-07T03:36:26;9.07;;;5.87;;
47844;SDS011;33605;48.822;8.796;2023-12-07T03:38:51;8.30;;;5.87;;
47844;SDS011;33605;48.822;8.796;2023-12-07T03:41:17;7.80;;;5.20;;
47844;SDS011;33605;48.822;8.796;2023-12-07T03:43:43;6.33;;;5.03;;
47844;SDS011;33605;48.822;8.796;2023-12-07T03:46:09;5.97;;;5.00;;
47844;SDS011;33605;48.822;8.796;2023-12-07T03:48:35;8.27;;;5.27;;
47844;SDS011;33605;48.822;8.796;2023-12-07T03:51:01;7.07;;;5.20;;
47844;SDS011;33605;48.822;8.796;2023-12-07T03:53:27;6.60;;;5.17;;
47844;SDS011;33605;48.822;8.796;2023-12-07T03:55:53;6.57;;;4.90;;
47844;SDS011;33605;48.822;8.796;2023-12-07T03:58:20;8.77;;;5.40;;
47844;SDS011;33605;48.822;8.796;2023-12-07T04:00:46;6.27;;;5.07;;
47844;SDS011;33605;48.822;8.796;2023-12-07T04:03:12;7.20;;;5.23;;
47844;SDS011;33605;48.822;8.796;2023-12-07T04:05:38;6.30;;;5.40;;
47844;SDS011;33605;48.822;8.796;2023-12-07T04:08:04;6.53;;;5.20;;
47844;SDS011;33605;48.822;8.796;2023-12-07T04:10:30;6.67;;;5.47;;
47844;SDS011;33605;48.822;8.796;2023-12-07T04:12:56;6.63;;;5.80;;
47844;SDS011;33605;48.822;8.796;2023-12-07T04:15:22;10.13;;;5.40;;
47844;SDS011;33605;48.822;8.796;2023-12-07T04:17:48;6.37;;;5.20;;
47844;SDS011;33605;48.822;8.796;2023-12-07T04:20:14;6.80;;;5.47;;
47844;SDS011;33605;48.822;8.796;2023-12-07T04:22:40;8.37;;;5.97;;
47844;SDS011;33605;48.822;8.796;2023-12-07T04:25:06;9.50;;;5.80;;
47844;SDS011;33605;48.822;8.796;2023-12-07T04:27:35;7.63;;;6.27;;
47844;SDS011;33605;48.822;8.796;2023-12-07T04:30:01;6.93;;;5.93;;
47844;SDS011;33605;48.822;8.796;2023-12-07T04:32:28;6.97;;;5.60;;
47844;SDS011;33605;48.822;8.796;2023-12-07T04:34:54;10.80;;;7.33;;
47844;SDS011;33605;48.822;8.796;2023-12-07T04:37:20;8.00;;;5.50;;
47844;SDS011;33605;48.822;8.796;2023-12-07T04:39:46;9.83;;;5.93;;
47844;SDS011;33605;48.822;8.796;2023-12-07T04:42:11;7.77;;;5.57;;
47844;SDS011;33605;48.822;8.796;2023-12-07T04:44:37;7.77;;;5.10;;
47844;SDS011;33605;48.822;8.796;2023-12-07T04:47:03;8.80;;;5.60;;
47844;SDS011;33605;48.822;8.796;2023-12-07T04:49:29;12.27;;;7.80;;
47844;SDS011;33605;48.822;8.796;2023-12-07T04:51:54;8.80;;;5.30;;
47844;SDS011;33605;48.822;8.796;2023-12-07T04:54:20;6.70;;;5.00;;
47844;SDS011;33605;48.822;8.796;2023-12-07T04:56:46;6.70;;;5.10;;
47844;SDS011;33605;48.822;8.796;2023-12-07T04:59:11;7.83;;;5.87;;
47844;SDS011;33605;48.822;8.796;2023-12-07T05:01:38;7.47;;;5.27;;
47844;SDS011;33605;48.822;8.796;2023-12-07T05:04:04;9.13;;;6.60;;
47844;SDS011;33605;48.822;8.796;2023-12-07T05:06:30;9.20;;;5.67;;
47844;SDS011;33605;48.822;8.796;2023-12-07T05:08:57;6.23;;;5.20;;
47844;SDS011;33605;48.822;8.796;2023-12-07T05:11:23;7.30;;;5.73;;
47844;SDS011;33605;48.822;8.796;2023-12-07T05:13:49;8.43;;;6.27;;
47844;SDS011;33605;48.822;8.796;2023-12-07T05:16:14;9.47;;;6.93;;
47844;SDS011;33605;48.822;8.796;2023-12-07T05:18:40;8.97;;;6.80;;
47844;SDS011;33605;48.822;8.796;2023-12-07T05:21:06;9.00;;;6.20;;
47844;SDS011;33605;48.822;8.796;2023-12-07T05:23:32;8.43;;;6.30;;
47844;SDS011;33605;48.822;8.796;2023-12-07T05:25:58;10.50;;;6.07;;
47844;SDS011;33605;48.822;8.796;2023-12-07T05:28:25;8.33;;;5.77;;
47844;SDS011;33605;48.822;8.796;2023-12-07T05:30:52;7.03;;;5.77;;
47844;SDS011;33605;48.822;8.796;2023-12-07T05:33:18;8.03;;;6.30;;
47844;SDS011;33605;48.822;8.796;2023-12-07T05:35:44;11.20;;;6.77;;
47844;SDS011;33605;48.822;8.796;2023-12-07T05:38:10;8.37;;;6.53;;
47844;SDS011;33605;48.822;8.796;2023-12-07T05:40:36;9.30;;;6.03;;
47844;SDS011;33605;48.822;8.796;2023-12-07T05:43:02;12.67;;;6.93;;
47844;SDS011;33605;48.822;8.796;2023-12-07T05:45:29;7.93;;;5.97;;
47844;SDS011;33605;48.822;8.796;2023-12-07T05:47:55;8.00;;;6.20;;
47844;SDS011;33605;48.822;8.796;2023-12-07T05:50:21;8.37;;;6.13;;
47844;SDS011;33605;48.822;8.796;2023-12-07T05:52:46;8.40;;;6.13;;
47844;SDS011;33605;48.822;8.796;2023-12-07T05:55:12;8.23;;;6.23;;
47844;SDS011;33605;48.822;8.796;2023-12-07T05:57:38;11.87;;;7.70;;
47844;SDS011;33605;48.822;8.796;2023-12-07T06:00:05;8.67;;;6.63;;
47844;SDS011;33605;48.822;8.796;2023-12-07T06:02:34;8.20;;;6.13;;
47844;SDS011;33605;48.822;8.796;2023-12-07T06:05:01;8.30;;;6.30;;
47844;SDS011;33605;48.822;8.796;2023-12-07T06:07:29;8.33;;;6.07;;
47844;SDS011;33605;48.822;8.796;2023-12-07T06:09:54;8.77;;;5.63;;
47844;SDS011;33605;48.822;8.796;2023-12-07T06:12:20;7.57;;;6.07;;
47844;SDS011;33605;48.822;8.796;2023-12-07T06:14:47;9.30;;;6.10;;
47844;SDS011;33605;48.822;8.796;2023-12-07T06:17:13;8.97;;;6.20;;
47844;SDS011;33605;48.822;8.796;2023-12-07T06:19:39;9.00;;;6.10;;
47844;SDS011;33605;48.822;8.796;2023-12-07T06:22:04;8.70;;;6.13;;
47844;SDS011;33605;48.822;8.796;2023-12-07T06:24:31;9.57;;;6.73;;
47844;SDS011;33605;48.822;8.796;2023-12-07T06:26:57;7.50;;;5.87;;
47844;SDS011;33605;48.822;8.796;2023-12-07T06:29:24;11.63;;;6.63;;
47844;SDS011;33605;48.822;8.796;2023-12-07T06:31:50;7.57;;;6.30;;
47844;SDS011;33605;48.822;8.796;2023-12-07T06:34:16;8.70;;;5.60;;
47844;SDS011;33605;48.822;8.796;2023-12-07T06:36:42;9.50;;;6.63;;
47844;SDS011;33605;48.822;8.796;2023-12-07T06:39:09;11.63;;;6.97;;
47844;SDS011;33605;48.822;8.796;2023-12-07T06:41:35;10.53;;;7.97;;
47844;SDS011;33605;48.822;8.796;2023-12-07T06:44:00;9.60;;;6.57;;
47844;SDS011;33605;48.822;8.796;2023-12-07T06:46:26;6.90;;;5.80;;
47844;SDS011;33605;48.822;8.796;2023-12-07T06:48:52;7.67;;;5.70;;
47844;SDS011;33605;48.822;8.796;2023-12-07T06:51:18;7.03;;;6.33;;
47844;SDS011;33605;48.822;8.796;2023-12-07T06:53:44;10.20;;;6.13;;
47844;SDS011;33605;48.822;8.796;2023-12-07T06:56:09;9.97;;;6.67;;
47844;SDS011;33605;48.822;8.796;2023-12-07T06:58:35;7.83;;;6.77;;
47844;SDS011;33605;48.822;8.796;2023-12-07T07:01:00;10.00;;;6.30;;
47844;SDS011;33605;48.822;8.796;2023-12-07T07:03:26;8.10;;;5.23;;
47844;SDS011;33605;48.822;8.796;2023-12-07T07:05:53;8.30;;;6.20;;
47844;SDS011;33605;48.822;8.796;2023-12-07T07:08:21;8.93;;;8.00;;
47844;SDS011;33605;48.822;8.796;2023-12-07T07:10:47;12.57;;;6.10;;
47844;SDS011;33605;48.822;8.796;2023-12-07T07:13:13;6.60;;;5.17;;
47844;SDS011;33605;48.822;8.796;2023-12-07T07:15:41;9.00;;;6.90;;
47844;SDS011;33605;48.822;8.796;2023-12-07T07:18:08;6.83;;;5.60;;
47844;SDS011;33605;48.822;8.796;2023-12-07T07:20:34;13.43;;;8.60;;
47844;SDS011;33605;48.822;8.796;2023-12-07T07:23:00;8.63;;;6.77;;
47844;SDS011;33605;48.822;8.796;2023-12-07T07:25:26;8.73;;;5.93;;
47844;SDS011;33605;48.822;8.796;2023-12-07T07:27:51;11.20;;;5.77;;
47844;SDS011;33605;48.822;8.796;2023-12-07T07:30:19;11.97;;;7.13;;
47844;SDS011;33605;48.822;8.796;2023-12-07T07:32:45;10.40;;;6.47;;
47844;SDS011;33605;48.822;8.796;2023-12-07T07:35:12;11.10;;;6.50;;
47844;SDS011;33605;48.822;8.796;2023-12-07T07:37:40;9.83;;;6.87;;
47844;SDS011;33605;48.822;8.796;2023-12-07T07:40:09;10.33;;;6.77;;
47844;SDS011;33605;48.822;8.796;2023-12-07T07:42:37;9.50;;;6.23;;
47844;SDS011;33605;48.822;8.796;2023-12-07T07:45:07;6.30;;;5.60;;
47844;SDS011;33605;48.822;8.796;2023-12-07T07:47:33;10.17;;;6.40;;
47844;SDS011;33605;48.822;8.796;2023-12-07T07:49:59;9.20;;;6.50;;
47844;SDS011;33605;48.822;8.796;2023-12-07T07:52:28;8.27;;;6.33;;
47844;SDS011;33605;48.822;8.796;2023-12-07T07:54:54;9.37;;;5.80;;
47844;SDS011;33605;48.822;8.796;2023-12-07T07:57:19;9.23;;;7.10;;
47844;SDS011;33605;48.822;8.796;2023-12-07T07:59:45;9.20;;;8.07;;
47844;SDS011;33605;48.822;8.796;2023-12-07T08:02:11;10.10;;;8.47;;
47844;SDS011;33605;48.822;8.796;2023-12-07T08:04:37;10.70;;;7.90;;
47844;SDS011;33605;48.822;8.796;2023-12-07T08:07:03;7.83;;;7.03;;
47844;SDS011;33605;48.822;8.796;2023-12-07T08:09:28;10.93;;;7.40;;
47844;SDS011;33605;48.822;8.796;2023-12-07T08:11:54;8.70;;;6.53;;
47844;SDS011;33605;48.822;8.796;2023-12-07T08:14:20;10.57;;;7.37;;
47844;SDS011;33605;48.822;8.796;2023-12-07T08:16:45;10.37;;;6.13;;
47844;SDS011;33605;48.822;8.796;2023-12-07T08:19:11;8.63;;;4.80;;
47844;SDS011;33605;48.822;8.796;2023-12-07T08:21:38;8.00;;;6.10;;
47844;SDS011;33605;48.822;8.796;2023-12-07T08:24:04;6.30;;;5.00;;
47844;SDS011;33605;48.822;8.796;2023-12-07T08:26:31;7.07;;;5.80;;
47844;SDS011;33605;48.822;8.796;2023-12-07T08:28:57;7.63;;;6.33;;
47844;SDS011;33605;48.822;8.796;2023-12-07T08:31:22;8.90;;;6.63;;
47844;SDS011;33605;48.822;8.796;2023-12-07T08:33:49;7.20;;;6.13;;
47844;SDS011;33605;48.822;8.796;2023-12-07T08:36:16;8.77;;;6.43;;
47844;SDS011;33605;48.822;8.796;2023-12-07T08:38:42;7.73;;;5.90;;
47844;SDS011;33605;48.822;8.796;2023-12-07T08:41:08;6.73;;;5.60;;
47844;SDS011;33605;48.822;8.796;2023-12-07T08:43:34;8.57;;;6.67;;
47844;SDS011;33605;48.822;8.796;2023-12-07T08:45:59;7.37;;;5.60;;
47844;SDS011;33605;48.822;8.796;2023-12-07T08:48:25;9.30;;;6.60;;
47844;SDS011;33605;48.822;8.796;2023-12-07T08:50:51;9.03;;;5.90;;
47844;SDS011;33605;48.822;8.796;2023-12-07T08:53:17;6.93;;;5.87;;
47844;SDS011;33605;48.822;8.796;2023-12-07T08:55:42;8.00;;;5.90;;
47844;SDS011;33605;48.822;8.796;2023-12-07T08:58:08;7.93;;;5.77;;
47844;SDS011;33605;48.822;8.796;2023-12-07T09:00:35;8.50;;;6.70;;
47844;SDS011;33605;48.822;8.796;2023-12-07T09:03:03;8.40;;;5.90;;
47844;SDS011;33605;48.822;8.796;2023-12-07T09:05:29;9.30;;;6.63;;
47844;SDS011;33605;48.822;8.796;2023-12-07T09:07:55;7.20;;;6.00;;
47844;SDS011;33605;48.822;8.796;2023-12-07T09:10:22;7.90;;;5.90;;
47844;SDS011;33605;48.822;8.796;2023-12-07T09:12:48;10.13;;;6.67;;
47844;SDS011;33605;48.822;8.796;2023-12-07T09:15:14;9.63;;;5.77;;
47844;SDS011;33605;48.822;8.796;2023-12-07T09:17:41;7.03;;;6.23;;
47844;SDS011;33605;48.822;8.796;2023-12-07T09:20:07;11.67;;;6.10;;
47844;SDS011;33605;48.822;8.796;2023-12-07T09:22:40;6.37;;;5.70;;
47844;SDS011;33605;48.822;8.796;2023-12-07T09:25:06;10.37;;;6.10;;
47844;SDS011;33605;48.822;8.796;2023-12-07T09:27:33;7.77;;;5.97;;
47844;SDS011;33605;48.822;8.796;2023-12-07T09:30:03;6.83;;;6.00;;
47844;SDS011;33605;48.822;8.796;2023-12-07T09:32:29;8.13;;;6.40;;
47844;SDS011;33605;48.822;8.796;2023-12-07T09:34:55;8.20;;;6.33;;
47844;SDS011;33605;48.822;8.796;2023-12-07T09:37:21;6.80;;;6.10;;
47844;SDS011;33605;48.822;8.796;2023-12-07T09:39:47;13.93;;;5.97;;
47844;SDS011;33605;48.822;8.796;2023-12-07T09:42:13;7.93;;;6.43;;
47844;SDS011;33605;48.822;8.796;2023-12-07T09:44:39;8.70;;;6.70;;
47844;SDS011;33605;48.822;8.796;2023-12-07T09:47:06;7.07;;;6.33;;
47844;SDS011;33605;48.822;8.796;2023-12-07T09:49:32;9.43;;;7.40;;
47844;SDS011;33605;48.822;8.796;2023-12-07T09:51:59;8.40;;;6.37;;
47844;SDS011;33605;48.822;8.796;2023-12-07T09:54:26;10.13;;;7.40;;
47844;SDS011;33605;48.822;8.796;2023-12-07T09:56:53;11.80;;;7.23;;
47844;SDS011;33605;48.822;8.796;2023-12-07T09:59:20;10.20;;;7.03;;
47844;SDS011;33605;48.822;8.796;2023-12-07T10:01:46;7.53;;;6.47;;
47844;SDS011;33605;48.822;8.796;2023-12-07T10:04:21;8.00;;;6.00;;
47844;SDS011;33605;48.822;8.796;2023-12-07T10:06:51;6.50;;;5.60;;
47844;SDS011;33605;48.822;8.796;2023-12-07T10:09:17;7.17;;;5.97;;
47844;SDS011;33605;48.822;8.796;2023-12-07T10:11:44;7.27;;;6.50;;
47844;SDS011;33605;48.822;8.796;2023-12-07T10:14:10;8.53;;;6.83;;
47844;SDS011;33605;48.822;8.796;2023-12-07T10:16:36;7.60;;;6.67;;
47844;SDS011;33605;48.822;8.796;2023-12-07T10:19:12;9.23;;;7.30;;
47844;SDS011;33605;48.822;8.796;2023-12-07T10:21:39;6.67;;;5.90;;
47844;SDS011;33605;48.822;8.796;2023-12-07T10:24:05;7.77;;;6.43;;
47844;SDS011;33605;48.822;8.796;2023-12-07T10:26:31;8.13;;;5.93;;
47844;SDS011;33605;48.822;8.796;2023-12-07T10:28:57;8.40;;;6.53;;
47844;SDS011;33605;48.822;8.796;2023-12-07T10:31:25;7.50;;;6.10;;
47844;SDS011;33605;48.822;8.796;2023-12-07T10:33:51;7.57;;;5.33;;
47844;SDS011;33605;48.822;8.796;2023-12-07T10:36:18;7.47;;;5.87;;
47844;SDS011;33605;48.822;8.796;2023-12-07T10:38:45;6.97;;;5.90;;
47844;SDS011;33605;48.822;8.796;2023-12-07T10:41:12;6.93;;;5.90;;
47844;SDS011;33605;48.822;8.796;2023-12-07T10:43:41;10.40;;;6.20;;
47844;SDS011;33605;48.822;8.796;2023-12-07T10:46:08;8.97;;;6.63;;
47844;SDS011;33605;48.822;8.796;2023-12-07T10:48:34;6.80;;;6.20;;
47844;SDS011;33605;48.822;8.796;2023-12-07T10:51:02;7.60;;;6.00;;
47844;SDS011;33605;48.822;8.796;2023-12-07T10:53:34;7.60;;;6.37;;
47844;SDS011;33605;48.822;8.796;2023-12-07T10:56:05;6.93;;;5.50;;
47844;SDS011;33605;48.822;8.796;2023-12-07T10:58:34;7.70;;;5.63;;
47844;SDS011;33605;48.822;8.796;2023-12-07T11:01:02;6.60;;;5.40;;
47844;SDS011;33605;48.822;8.796;2023-12-07T11:03:28;5.30;;;4.80;;
47844;SDS011;33605;48.822;8.796;2023-12-07T11:05:54;6.33;;;5.63;;
47844;SDS011;33605;48.822;8.796;2023-12-07T11:08:33;6.07;;;5.37;;
47844;SDS011;33605;48.822;8.796;2023-12-07T11:11:04;5.47;;;4.33;;
47844;SDS011;33605;48.822;8.796;2023-12-07T11:13:34;5.17;;;4.67;;
47844;SDS011;33605;48.822;8.796;2023-12-07T11:16:02;5.23;;;4.70;;
47844;SDS011;33605;48.822;8.796;2023-12-07T11:18:28;4.97;;;4.47;;
47844;SDS011;33605;48.822;8.796;2023-12-07T11:20:54;6.20;;;4.67;;
47844;SDS011;33605;48.822;8.796;2023-12-07T11:23:20;4.70;;;4.30;;
47844;SDS011;33605;48.822;8.796;2023-12-07T11:25:47;4.43;;;3.93;;
47844;SDS011;33605;48.822;8.796;2023-12-07T11:28:14;4.80;;;4.17;;
47844;SDS011;33605;48.822;8.796;2023-12-07T11:30:46;4.90;;;4.37;;
47844;SDS011;33605;48.822;8.796;2023-12-07T11:33:14;4.50;;;4.10;;
47844;SDS011;33605;48.822;8.796;2023-12-07T11:36:26;4.40;;;4.00;;
47844;SDS011;33605;48.822;8.796;2023-12-07T11:38:27;4.00;;;3.70;;
47844;SDS011;33605;48.822;8.796;2023-12-07T11:40:53;4.23;;;3.83;;
47844;SDS011;33605;48.822;8.796;2023-12-07T11:46:00;4.07;;;3.67;;
47844;SDS011;33605;48.822;8.796;2023-12-07T11:48:27;4.20;;;3.50;;
47844;SDS011;33605;48.822;8.796;2023-12-07T11:51:00;4.00;;;3.60;;
47844;SDS011;33605;48.822;8.796;2023-12-07T11:53:30;3.57;;;3.27;;
47844;SDS011;33605;48.822;8.796;2023-12-07T11:55:57;5.20;;;3.20;;
47844;SDS011;33605;48.822;8.796;2023-12-07T11:58:28;3.00;;;2.70;;
47844;SDS011;33605;48.822;8.796;2023-12-07T12:00:55;3.57;;;3.27;;
47844;SDS011;33605;48.822;8.796;2023-12-07T12:03:22;4.50;;;3.00;;
47844;SDS011;33605;48.822;8.796;2023-12-07T12:05:48;4.03;;;3.60;;
47844;SDS011;33605;48.822;8.796;2023-12-07T12:08:15;3.40;;;3.10;;
47844;SDS011;33605;48.822;8.796;2023-12-07T12:10:42;3.70;;;3.40;;
47844;SDS011;33605;48.822;8.796;2023-12-07T12:13:08;3.60;;;3.10;;
47844;SDS011;33605;48.822;8.796;2023-12-07T12:15:34;3.60;;;3.30;;
47844;SDS011;33605;48.822;8.796;2023-12-07T12:18:00;4.90;;;3.13;;
47844;SDS011;33605;48.822;8.796;2023-12-07T12:20:27;4.60;;;3.80;;
47844;SDS011;33605;48.822;8.796;2023-12-07T12:22:54;4.43;;;3.40;;
47844;SDS011;33605;48.822;8.796;2023-12-07T12:25:23;3.40;;;3.10;;
47844;SDS011;33605;48.822;8.796;2023-12-07T12:27:56;3.93;;;3.17;;
47844;SDS011;33605;48.822;8.796;2023-12-07T12:30:23;3.27;;;2.40;;
47844;SDS011;33605;48.822;8.796;2023-12-07T12:32:49;3.27;;;2.97;;
47844;SDS011;33605;48.822;8.796;2023-12-07T12:35:16;3.60;;;3.30;;
47844;SDS011;33605;48.822;8.796;2023-12-07T12:37:43;4.70;;;3.57;;
47844;SDS011;33605;48.822;8.796;2023-12-07T12:40:09;3.57;;;3.20;;
47844;SDS011;33605;48.822;8.796;2023-12-07T12:42:36;3.43;;;3.07;;
47844;SDS011;33605;48.822;8.796;2023-12-07T12:45:03;3.90;;;3.17;;
47844;SDS011;33605;48.822;8.796;2023-12-07T12:47:30;3.47;;;3.17;;
47844;SDS011;33605;48.822;8.796;2023-12-07T12:49:57;5.00;;;3.20;;
47844;SDS011;33605;48.822;8.796;2023-12-07T12:52:24;2.90;;;2.70;;
47844;SDS011;33605;48.822;8.796;2023-12-07T12:54:51;3.90;;;3.13;;
47844;SDS011;33605;48.822;8.796;2023-12-07T12:57:17;3.30;;;3.00;;
47844;SDS011;33605;48.822;8.796;2023-12-07T12:59:44;4.30;;;3.67;;
47844;SDS011;33605;48.822;8.796;2023-12-07T13:02:10;4.20;;;3.10;;
47844;SDS011;33605;48.822;8.796;2023-12-07T13:04:39;3.13;;;2.83;;
47844;SDS011;33605;48.822;8.796;2023-12-07T13:07:06;4.17;;;3.77;;
47844;SDS011;33605;48.822;8.796;2023-12-07T13:09:32;3.07;;;2.87;;
47844;SDS011;33605;48.822;8.796;2023-12-07T13:11:58;3.40;;;3.10;;
47844;SDS011;33605;48.822;8.796;2023-12-07T13:14:24;3.87;;;2.90;;
47844;SDS011;33605;48.822;8.796;2023-12-07T13:16:50;3.60;;;3.30;;
47844;SDS011;33605;48.822;8.796;2023-12-07T13:19:17;3.10;;;2.90;;
47844;SDS011;33605;48.822;8.796;2023-12-07T13:21:45;3.50;;;3.20;;
47844;SDS011;33605;48.822;8.796;2023-12-07T13:24:10;3.60;;;2.93;;
47844;SDS011;33605;48.822;8.796;2023-12-07T13:26:38;2.93;;;2.73;;
47844;SDS011;33605;48.822;8.796;2023-12-07T13:29:04;3.53;;;3.23;;
47844;SDS011;33605;48.822;8.796;2023-12-07T13:31:30;3.77;;;3.10;;
47844;SDS011;33605;48.822;8.796;2023-12-07T13:33:56;5.13;;;3.00;;
47844;SDS011;33605;48.822;8.796;2023-12-07T13:36:22;3.40;;;2.93;;
47844;SDS011;33605;48.822;8.796;2023-12-07T13:38:51;2.87;;;2.63;;
47844;SDS011;33605;48.822;8.796;2023-12-07T13:41:17;5.97;;;3.17;;
47844;SDS011;33605;48.822;8.796;2023-12-07T13:43:44;2.83;;;2.17;;
47844;SDS011;33605;48.822;8.796;2023-12-07T13:46:13;3.53;;;2.67;;
47844;SDS011;33605;48.822;8.796;2023-12-07T13:48:40;2.90;;;2.50;;
47844;SDS011;33605;48.822;8.796;2023-12-07T13:51:07;2.70;;;2.50;;
47844;SDS011;33605;48.822;8.796;2023-12-07T13:53:33;2.70;;;2.37;;
47844;SDS011;33605;48.822;8.796;2023-12-07T13:55:59;3.07;;;2.37;;
47844;SDS011;33605;48.822;8.796;2023-12-07T13:58:25;2.73;;;2.50;;
47844;SDS011;33605;48.822;8.796;2023-12-07T14:00:51;2.50;;;2.30;;
47844;SDS011;33605;48.822;8.796;2023-12-07T14:03:17;3.13;;;2.83;;
47844;SDS011;33605;48.822;8.796;2023-12-07T14:05:43;3.07;;;2.63;;
47844;SDS011;33605;48.822;8.796;2023-12-07T14:08:11;3.37;;;2.70;;
47844;SDS011;33605;48.822;8.796;2023-12-07T14:10:37;2.70;;;2.50;;
47844;SDS011;33605;48.822;8.796;2023-12-07T14:13:03;2.90;;;2.70;;
47844;SDS011;33605;48.822;8.796;2023-12-07T14:15:29;3.53;;;2.87;;
47844;SDS011;33605;48.822;8.796;2023-12-07T14:17:57;2.77;;;2.40;;
47844;SDS011;33605;48.822;8.796;2023-12-07T14:20:24;2.80;;;2.60;;
47844;SDS011;33605;48.822;8.796;2023-12-07T14:22:52;2.87;;;2.60;;
47844;SDS011;33605;48.822;8.796;2023-12-07T14:25:18;3.07;;;2.60;;
47844;SDS011;33605;48.822;8.796;2023-12-07T14:27:45;3.07;;;2.80;;
47844;SDS011;33605;48.822;8.796;2023-12-07T14:30:11;3.13;;;2.83;;
47844;SDS011;33605;48.822;8.796;2023-12-07T14:32:37;3.10;;;2.50;;
47844;SDS011;33605;48.822;8.796;2023-12-07T14:35:06;3.27;;;2.93;;
47844;SDS011;33605;48.822;8.796;2023-12-07T14:37:32;5.13;;;3.20;;
47844;SDS011;33605;48.822;8.796;2023-12-07T14:39:58;2.60;;;2.40;;
47844;SDS011;33605;48.822;8.796;2023-12-07T14:42:24;3.37;;;3.07;;
47844;SDS011;33605;48.822;8.796;2023-12-07T14:44:49;3.30;;;2.80;;
47844;SDS011;33605;48.822;8.796;2023-12-07T14:47:15;4.37;;;3.20;;